Terminal Aerodrome Forecast
Issued by NWS

Home | Current Version | Previous Version | Text Only | Print | Product List | Glossary On
Versions: 1 2 3 4 5 6 7 8 9 10 11 12 13 14
056
FTUS42 TJSJ 061739
TAFJSJ
TAF
TJSJ 061739Z 0618/0718 14011G16KT P6SM SCT045
     FM062300 09007KT P6SM FEW030 SCT050
     FM071330 13007KT P6SM SCT030 SCT050
     FM071600 12010KT P6SM VCSH SCT035 BKN060=

USA.gov is the U.S. government's official web portal to all federal, state and local government web resources and services.